Time;durP1;ratioP1;P1;durP2;ratioP2;P2;SDS_P1;SDS_P2;PMS_P1;PMS_P2;Temp;Humidity;BMP_temperature;BMP_pressure;BME280_temperature;BME280_humidity;BME280_pressure;Samples;Min_cycle;Max_cycle;Signal;HPM_P1;HPM_P2
2022/05/13 00:00:38;;;;;;;2.80;1.63;;;;;;;21.02;36.82;101645.13;5015174;28;20379;-66
2022/05/13 00:03:04;;;;;;;6.03;1.67;;;;;;;20.99;36.57;101650.97;5032784;28;20033;-66
2022/05/13 00:05:29;;;;;;;5.65;1.20;;;;;;;20.96;36.77;101645.00;5032781;28;20029;-66
2022/05/13 00:07:55;;;;;;;3.40;1.33;;;;;;;20.93;36.62;101651.66;5032711;28;20021;-65
2022/05/13 00:10:20;;;;;;;1.17;1.02;;;;;;;20.90;36.80;101647.41;5032744;28;20024;-66
2022/05/13 00:12:45;;;;;;;2.80;1.10;;;;;;;20.86;36.25;101642.47;5034271;28;20028;-66
2022/05/13 00:15:18;;;;;;;4.07;1.88;;;;;;;20.83;37.06;101645.56;5036316;28;20018;-66
2022/05/13 00:17:43;;;;;;;4.00;1.05;;;;;;;20.78;36.48;101643.38;5036338;28;20025;-66
2022/05/13 00:20:11;;;;;;;3.83;2.35;;;;;;;20.74;36.56;101646.63;5036285;28;20044;-66
2022/05/13 00:22:43;;;;;;;1.42;1.30;;;;;;;20.70;37.04;101639.81;5036494;28;20029;-66
2022/05/13 00:25:09;;;;;;;6.03;1.25;;;;;;;20.63;36.39;101633.41;5036367;28;20051;-66
2022/05/13 00:27:34;;;;;;;1.27;1.10;;;;;;;20.55;36.66;101627.94;5036127;28;20041;-66
2022/05/13 00:30:00;;;;;;;3.55;1.10;;;;;;;20.49;36.58;101628.66;5036143;28;20371;-65
2022/05/13 00:32:25;;;;;;;2.05;1.02;;;;;;;20.42;36.52;101639.38;5036056;28;20471;-66
2022/05/13 00:34:51;;;;;;;5.20;0.80;;;;;;;20.36;36.47;101631.91;5036106;28;20490;-66
2022/05/13 00:37:18;;;;;;;6.15;1.35;;;;;;;20.33;36.71;101634.97;5036166;28;20025;-65
2022/05/13 00:39:43;;;;;;;2.90;0.85;;;;;;;20.29;36.90;101634.50;5036144;28;20025;-66
2022/05/13 00:42:11;;;;;;;6.82;1.02;;;;;;;20.26;36.91;101632.13;5035795;28;20032;-66
2022/05/13 00:44:37;;;;;;;3.40;0.90;;;;;;;20.26;37.25;101623.09;5035721;28;20075;-67
2022/05/13 00:47:04;;;;;;;5.75;1.80;;;;;;;20.22;36.98;101622.56;5035836;28;20029;-66
2022/05/13 00:49:31;;;;;;;6.90;1.05;;;;;;;20.21;36.34;101629.00;5018390;28;20527;-66
2022/05/13 00:51:57;;;;;;;1.00;0.60;;;;;;;20.19;36.97;101633.78;5017995;28;20116;-66
2022/05/13 00:54:23;;;;;;;5.68;1.00;;;;;;;20.19;37.15;101633.78;5035749;28;20026;-66
2022/05/13 00:56:48;;;;;;;4.93;1.00;;;;;;;20.20;36.91;101635.47;5017672;28;20499;-66
2022/05/13 00:59:20;;;;;;;4.85;0.80;;;;;;;20.22;36.67;101625.28;5035671;28;20033;-66
2022/05/13 01:01:48;;;;;;;4.93;1.00;;;;;;;20.25;37.24;101630.41;5035509;28;20069;-66
2022/05/13 01:04:16;;;;;;;3.22;1.10;;;;;;;20.26;36.81;101626.66;5035674;28;20112;-66
2022/05/13 01:06:44;;;;;;;7.45;1.20;;;;;;;20.30;36.99;101627.16;5017900;28;20391;-66
2022/05/13 01:09:10;;;;;;;5.60;1.65;;;;;;;20.35;37.01;101626.66;5017976;28;20156;-66
2022/05/13 01:11:37;;;;;;;3.63;0.90;;;;;;;20.39;37.19;101628.84;5035355;28;20112;-66
2022/05/13 01:14:06;;;;;;;2.25;0.80;;;;;;;20.43;36.40;101627.50;5017659;28;20097;-66
2022/05/13 01:19:18;;;;;;;3.03;0.70;;;;;;;20.48;36.69;101629.69;5035433;28;20061;-66
2022/05/13 01:21:43;;;;;;;6.28;1.00;;;;;;;20.51;36.63;101629.34;5035471;28;20494;-66
2022/05/13 01:24:09;;;;;;;1.45;0.60;;;;;;;20.51;36.92;101632.06;5034658;28;20029;-66
2022/05/13 01:26:36;;;;;;;3.67;0.90;;;;;;;20.48;36.47;101629.69;5035367;28;20017;-66
2022/05/13 01:29:02;;;;;;;4.00;0.52;;;;;;;20.49;36.58;101634.09;5035397;28;20037;-66
2022/05/13 01:31:30;;;;;;;4.00;1.08;;;;;;;20.46;36.17;101627.16;5035056;28;20030;-66
2022/05/13 01:33:57;;;;;;;0.90;0.47;;;;;;;20.44;36.50;101637.34;5034924;28;20379;-66
2022/05/13 01:36:22;;;;;;;3.35;0.73;;;;;;;20.43;36.43;101638.38;5034943;28;20029;-66
2022/05/13 01:38:48;;;;;;;6.15;0.82;;;;;;;20.43;36.41;101642.97;5034831;28;20029;-66
2022/05/13 01:41:14;;;;;;;3.13;0.57;;;;;;;20.42;36.47;101639.38;5034736;28;20048;-66
2022/05/13 01:43:41;;;;;;;2.35;0.52;;;;;;;20.40;36.31;101641.44;5034674;28;20068;-66
2022/05/13 01:46:07;;;;;;;2.70;0.47;;;;;;;20.40;36.27;101646.03;5034616;28;20391;-66
2022/05/13 01:48:33;;;;;;;0.95;0.82;;;;;;;20.40;36.34;101638.72;5034841;28;20026;-66
2022/05/13 01:50:59;;;;;;;3.03;1.10;;;;;;;20.40;36.32;101643.31;5034900;28;20360;-66
2022/05/13 01:53:24;;;;;;;1.08;0.70;;;;;;;20.39;35.97;101647.03;5034536;28;20060;-66
2022/05/13 01:55:50;;;;;;;3.45;0.82;;;;;;;20.40;35.70;101640.59;5034693;28;20108;-66
2022/05/13 01:58:18;;;;;;;3.50;0.57;;;;;;;20.37;36.08;101643.66;5034487;28;20625;-65
2022/05/13 02:00:45;;;;;;;1.55;0.95;;;;;;;20.36;36.07;101641.94;5034593;28;20095;-66
2022/05/13 02:05:54;;;;;;;3.15;0.60;;;;;;;20.29;36.07;101641.81;5034405;28;20036;-66
2022/05/13 02:08:20;;;;;;;4.47;0.90;;;;;;;20.26;36.24;101637.56;5034344;28;20475;-66
2022/05/13 02:10:45;;;;;;;2.60;0.77;;;;;;;20.22;35.88;101652.47;5034278;28;20491;-67
2022/05/13 02:13:12;;;;;;;1.30;0.40;;;;;;;20.20;36.23;101646.38;5034134;28;20057;-65
2022/05/13 02:15:38;;;;;;;4.35;0.68;;;;;;;20.19;36.28;101647.38;5034081;28;20383;-66
2022/05/13 02:18:03;;;;;;;3.80;0.60;;;;;;;20.17;36.15;101654.88;5034051;28;20029;-66
2022/05/13 02:20:28;;;;;;;3.40;0.50;;;;;;;20.15;36.31;101651.47;5034216;28;20108;-66
2022/05/13 02:22:54;;;;;;;2.40;0.47;;;;;;;20.14;35.89;101655.22;5037603;28;20025;-64
2022/05/13 02:25:22;;;;;;;4.10;0.63;;;;;;;20.11;36.22;101652.84;5021219;28;20030;-66
2022/05/13 02:27:47;;;;;;;1.33;0.50;;;;;;;20.08;35.63;101655.03;5034387;28;20376;-65
2022/05/13 02:30:14;;;;;;;7.65;1.23;;;;;;;20.05;36.09;101649.94;5016843;28;20031;-66
2022/05/13 02:32:40;;;;;;;1.02;0.55;;;;;;;20.01;35.47;101648.59;5034098;28;20022;-65
2022/05/13 02:35:06;;;;;;;4.15;0.70;;;;;;;19.98;36.14;101655.22;5034024;28;20051;-65
2022/05/13 02:37:31;;;;;;;4.35;0.75;;;;;;;19.96;35.88;101661.84;5033575;28;20032;-64
2022/05/13 02:39:56;;;;;;;3.17;0.57;;;;;;;19.94;36.52;101658.44;5034212;28;20116;-66
2022/05/13 02:42:22;;;;;;;4.05;0.70;;;;;;;19.96;36.54;101662.69;5016167;28;20387;-66
2022/05/13 02:44:47;;;;;;;2.95;0.50;;;;;;;19.97;36.40;101658.94;5033851;28;20056;-65
2022/05/13 02:47:13;;;;;;;3.03;0.40;;;;;;;19.99;36.31;101661.53;5033972;28;20471;-65
2022/05/13 02:49:38;;;;;;;2.10;0.57;;;;;;;19.99;36.20;101665.06;5033781;28;20022;-64
2022/05/13 02:52:04;;;;;;;6.75;0.55;;;;;;;20.00;36.50;101657.75;5033981;28;20100;-64
2022/05/13 02:54:29;;;;;;;8.35;0.77;;;;;;;20.01;36.47;101664.91;5033903;28;20068;-64
2022/05/13 02:56:55;;;;;;;3.33;0.70;;;;;;;19.99;36.43;101662.34;5033791;28;20021;-64
2022/05/13 02:59:20;;;;;;;3.10;0.40;;;;;;;19.99;36.16;101648.75;5034143;28;20029;-65
2022/05/13 03:01:45;;;;;;;3.42;0.90;;;;;;;19.98;35.91;101644.34;5034131;28;20033;-66
2022/05/13 03:04:11;;;;;;;2.03;0.73;;;;;;;19.98;36.21;101644.34;5033416;28;20108;-66
2022/05/13 03:06:37;;;;;;;4.50;0.85;;;;;;;19.93;35.74;101635.84;5015814;28;20033;-64
2022/05/13 03:09:03;;;;;;;2.88;0.90;;;;;;;19.93;36.17;101630.41;5033432;28;20025;-66
2022/05/13 03:11:29;;;;;;;2.75;0.65;;;;;;;19.91;36.63;101632.44;5033446;28;20505;-66
2022/05/13 03:13:55;;;;;;;1.75;0.80;;;;;;;19.89;36.44;101637.19;5015777;28;20049;-66
2022/05/13 03:16:23;;;;;;;4.00;1.40;;;;;;;19.88;36.59;101631.94;5016011;28;20072;-66
2022/05/13 03:18:52;;;;;;;7.43;0.73;;;;;;;19.87;36.48;101633.81;5016002;28;20085;-65
2022/05/13 03:21:18;;;;;;;5.13;0.73;;;;;;;19.85;36.00;101633.09;5033668;28;20033;-65
2022/05/13 03:23:43;;;;;;;2.67;0.50;;;;;;;19.85;36.11;101633.09;5033328;28;20369;-65
2022/05/13 03:26:13;;;;;;;8.52;0.95;;;;;;;19.84;36.69;101626.00;5033536;28;20033;-64
2022/05/13 03:28:38;;;;;;;2.20;1.00;;;;;;;19.82;36.65;101622.56;5016101;28;20040;-66
2022/05/13 03:31:04;;;;;;;8.02;0.95;;;;;;;19.84;36.75;101627.84;5033429;28;20538;-66
2022/05/13 03:33:29;;;;;;;3.88;1.10;;;;;;;19.83;36.22;101629.72;5033338;28;20033;-65
2022/05/13 03:35:55;;;;;;;3.75;0.70;;;;;;;19.82;36.80;101621.75;5033245;28;20025;-66
2022/05/13 03:38:20;;;;;;;3.08;0.75;;;;;;;19.82;37.00;101622.56;5033384;28;20032;-65
2022/05/13 03:40:46;;;;;;;2.53;0.70;;;;;;;19.79;37.20;101632.94;5015960;28;20030;-65
2022/05/13 03:43:12;;;;;;;1.83;0.63;;;;;;;19.77;36.88;101630.38;5015648;28;20104;-64
2022/05/13 03:45:37;;;;;;;5.38;1.15;;;;;;;19.75;36.90;101633.28;5033196;28;20025;-65
2022/05/13 03:48:04;;;;;;;9.07;1.65;;;;;;;19.74;36.83;101633.44;5018128;28;20040;-65
2022/05/13 03:50:30;;;;;;;2.55;0.70;;;;;;;19.71;37.01;101631.91;5037794;28;20022;-64
2022/05/13 03:52:56;;;;;;;3.70;0.82;;;;;;;19.70;37.45;101634.81;5037275;28;20079;-65
2022/05/13 03:55:22;;;;;;;4.72;0.75;;;;;;;19.67;37.15;101637.88;5037164;28;20379;-66
2022/05/13 03:57:48;;;;;;;3.67;0.98;;;;;;;19.65;36.60;101643.44;5037192;28;20069;-65
2022/05/13 04:00:14;;;;;;;3.38;0.60;;;;;;;19.64;36.86;101640.91;5036946;28;20067;-65
2022/05/13 04:02:39;;;;;;;4.80;0.75;;;;;;;19.62;36.71;101645.69;5037742;28;20021;-65
2022/05/13 04:10:34;;;;;;;2.08;0.63;;;;;;;19.58;37.46;101653.31;5037053;28;20079;-65
2022/05/13 04:18:27;;;;;;;11.32;1.17;;;;;;;19.54;36.86;101651.94;5036683;28;20052;-66
2022/05/13 04:20:53;;;;;;;3.75;0.82;;;;;;;19.56;37.02;101654.50;5037066;28;20475;-65
2022/05/13 04:23:18;;;;;;;4.55;1.50;;;;;;;19.58;37.11;101660.59;5018954;28;20431;-65
2022/05/13 04:25:44;;;;;;;4.30;1.15;;;;;;;19.58;37.19;101658.75;5018901;28;20483;-66
2022/05/13 04:28:10;;;;;;;2.53;1.00;;;;;;;19.58;37.38;101656.03;5036304;28;20088;-66
2022/05/13 04:30:36;;;;;;;7.80;1.10;;;;;;;19.59;37.14;101659.59;5036539;28;20060;-66
2022/05/13 04:33:01;;;;;;;4.72;1.08;;;;;;;19.60;37.38;101661.28;5036265;28;20029;-65
2022/05/13 04:35:26;;;;;;;2.50;0.85;;;;;;;19.59;37.33;101654.16;5036507;28;20091;-66
2022/05/13 04:37:52;;;;;;;8.85;1.27;;;;;;;19.58;37.44;101663.34;5036393;28;20032;-65
2022/05/13 04:40:17;;;;;;;4.07;1.10;;;;;;;19.57;36.72;101661.66;5018686;28;20031;-65
2022/05/13 04:42:51;;;;;;;5.32;1.13;;;;;;;19.55;37.03;101667.22;5036428;28;20108;-65
2022/05/13 04:45:24;;;;;;;2.83;1.13;;;;;;;19.60;37.27;101666.72;5036001;28;20029;-66
2022/05/13 04:50:39;;;;;;;5.20;0.77;;;;;;;19.66;37.21;101666.06;5036157;28;20113;-65
2022/05/13 04:53:05;;;;;;;4.13;0.90;;;;;;;19.68;37.76;101662.16;5036069;28;20025;-66
2022/05/13 04:55:31;;;;;;;5.68;1.63;;;;;;;19.76;36.80;101666.78;5018705;28;20483;-65
2022/05/13 04:57:56;;;;;;;1.60;0.80;;;;;;;19.89;36.51;101661.66;5035712;28;20076;-65
2022/05/13 05:00:22;;;;;;;5.53;0.93;;;;;;;20.01;37.15;101665.75;5034730;28;20108;-65
2022/05/13 05:02:47;;;;;;;4.40;0.73;;;;;;;20.13;37.19;101661.66;5035991;28;20387;-66
2022/05/13 05:05:13;;;;;;;8.20;1.10;;;;;;;20.25;36.92;101664.91;5035635;28;20026;-66
2022/05/13 05:07:38;;;;;;;5.15;1.50;;;;;;;20.37;37.00;101670.88;5035456;28;20143;-65
2022/05/13 05:10:04;;;;;;;5.60;2.00;;;;;;;20.44;36.78;101680.88;5035936;28;20032;-65
2022/05/13 05:12:29;;;;;;;9.30;1.50;;;;;;;20.53;37.14;101681.72;5035523;28;20440;-66
2022/05/13 05:14:55;;;;;;;2.83;1.40;;;;;;;20.54;36.68;101691.59;5035358;28;20479;-65
2022/05/13 05:17:20;;;;;;;2.40;1.00;;;;;;;20.55;36.61;101688.69;5035663;28;20376;-66
2022/05/13 05:19:45;;;;;;;5.10;0.88;;;;;;;20.53;36.72;101682.56;5035295;28;20053;-65
2022/05/13 05:22:11;;;;;;;3.15;1.63;;;;;;;20.52;36.86;101685.50;5035553;28;20108;-65
2022/05/13 05:24:36;;;;;;;2.53;0.82;;;;;;;20.50;37.01;101677.47;5017799;28;20063;-66
2022/05/13 05:27:02;;;;;;;7.32;1.17;;;;;;;20.51;36.90;101678.34;5036000;28;20080;-66
2022/05/13 05:29:27;;;;;;;3.60;1.25;;;;;;;20.53;37.17;101695.34;5017879;28;20056;-65
2022/05/13 05:31:52;;;;;;;3.47;0.80;;;;;;;20.52;36.67;101694.47;5035625;28;20486;-65
2022/05/13 05:34:18;;;;;;;8.18;1.25;;;;;;;20.54;36.88;101702.50;5035145;28;20017;-66
2022/05/13 05:36:44;;;;;;;3.38;1.08;;;;;;;20.56;36.78;101708.59;5034951;28;20032;-66
2022/05/13 05:39:10;;;;;;;12.73;1.50;;;;;;;20.60;37.11;101707.25;5035040;28;20029;-66
2022/05/13 05:41:36;;;;;;;7.28;1.48;;;;;;;20.65;36.72;101713.03;5035180;28;20518;-66
2022/05/13 05:44:02;;;;;;;6.63;1.15;;;;;;;20.73;37.01;101710.28;5034808;28;20032;-65
2022/05/13 05:46:27;;;;;;;11.00;1.75;;;;;;;20.79;37.24;101720.47;5035133;28;20120;-66
2022/05/13 05:48:52;;;;;;;10.05;1.40;;;;;;;20.79;37.38;101731.38;5034847;28;20383;-65
2022/05/13 05:51:18;;;;;;;7.55;1.02;;;;;;;20.78;37.11;101735.13;5035399;28;20022;-66
2022/05/13 05:59:11;;;;;;;2.75;0.95;;;;;;;20.83;37.09;101733.56;5034541;28;20053;-66
2022/05/13 06:01:36;;;;;;;3.92;0.80;;;;;;;20.87;36.96;101734.06;5035074;28;20471;-66
2022/05/13 06:04:03;;;;;;;6.40;1.08;;;;;;;20.92;36.92;101727.09;5034533;28;20120;-66
2022/05/13 06:06:28;;;;;;;3.63;1.20;;;;;;;20.99;36.79;101721.81;5034705;28;20030;-65
2022/05/13 06:08:57;;;;;;;21.27;2.25;;;;;;;21.08;36.97;101726.19;5034445;28;20457;-65
2022/05/13 06:11:26;;;;;;;4.00;1.08;;;;;;;21.15;37.44;101729.94;5034653;28;20079;-66
2022/05/13 06:13:53;;;;;;;6.03;1.80;;;;;;;21.31;36.75;101727.16;5034376;28;20059;-66
2022/05/13 06:16:19;;;;;;;6.88;2.00;;;;;;;21.43;36.51;101741.25;5034414;28;20021;-66
2022/05/13 06:18:45;;;;;;;5.18;1.13;;;;;;;21.53;36.77;101747.31;5016881;28;20071;-65
2022/05/13 06:21:10;;;;;;;7.00;1.10;;;;;;;21.62;36.91;101745.41;5033980;28;20104;-66
2022/05/13 06:23:36;;;;;;;5.90;1.10;;;;;;;21.69;36.94;101747.22;5034467;28;20056;-65
2022/05/13 06:26:02;;;;;;;7.15;2.35;;;;;;;21.83;37.21;101754.63;5034589;28;20021;-66
2022/05/13 06:28:28;;;;;;;5.32;1.30;;;;;;;21.98;36.28;101741.13;5034082;28;20447;-66
2022/05/13 06:30:54;;;;;;;10.60;1.42;;;;;;;22.18;36.51;101747.78;5034120;28;20022;-65
2022/05/13 06:33:20;;;;;;;6.28;1.75;;;;;;;22.33;36.48;101735.06;5034039;28;20022;-66
2022/05/13 06:35:45;;;;;;;3.35;1.10;;;;;;;22.49;36.54;101756.75;5033911;28;20020;-66
2022/05/13 06:38:22;;;;;;;7.25;1.55;;;;;;;22.71;35.42;101759.66;5034305;28;20033;-66
2022/05/13 06:40:52;;;;;;;6.20;1.15;;;;;;;22.87;35.66;101770.41;5034054;28;20053;-65
2022/05/13 06:43:17;;;;;;;8.02;1.70;;;;;;;23.03;36.26;101767.53;5033841;28;20541;-64
2022/05/13 06:45:43;;;;;;;7.05;2.15;;;;;;;23.10;36.33;101765.72;5015819;28;20026;-65
2022/05/13 06:48:08;;;;;;;7.15;1.38;;;;;;;23.14;36.20;101769.81;5033892;28;20017;-66
2022/05/13 06:50:34;;;;;;;13.02;1.75;;;;;;;23.16;35.52;101764.97;5033705;28;20388;-66
2022/05/13 06:52:59;;;;;;;4.25;1.02;;;;;;;23.27;36.07;101769.13;5033822;28;20021;-66
2022/05/13 06:55:25;;;;;;;12.88;1.48;;;;;;;23.37;36.18;101773.25;5033550;28;20025;-65
2022/05/13 06:57:50;;;;;;;6.00;1.50;;;;;;;23.43;35.70;101768.97;5033467;28;20054;-66
2022/05/13 07:00:16;;;;;;;2.80;1.40;;;;;;;23.47;35.11;101776.63;5033707;28;20104;-66
2022/05/13 07:02:41;;;;;;;6.28;1.30;;;;;;;23.55;35.17;101776.50;5033593;28;20036;-66
2022/05/13 07:05:10;;;;;;;8.38;2.47;;;;;;;23.65;34.74;101782.50;5033476;28;20032;-65
2022/05/13 07:07:35;;;;;;;3.65;1.27;;;;;;;23.78;34.80;101776.38;5033431;28;20033;-66
2022/05/13 07:10:01;;;;;;;14.20;2.85;;;;;;;23.87;35.64;101777.94;5033519;28;20120;-65
2022/05/13 07:12:26;;;;;;;3.65;1.52;;;;;;;23.95;35.53;101777.00;5033747;28;20029;-65
2022/05/13 07:14:53;;;;;;;5.68;1.95;;;;;;;23.95;35.54;101777.84;5033480;28;20017;-65
2022/05/13 07:17:19;;;;;;;8.10;1.45;;;;;;;23.92;34.79;101778.22;5033701;28;20501;-66
2022/05/13 07:19:44;;;;;;;5.03;1.90;;;;;;;23.94;35.24;101786.22;5033549;28;20021;-65
2022/05/13 07:22:10;;;;;;;9.45;1.00;;;;;;;23.97;35.69;101788.59;5035281;28;20083;-66
2022/05/13 07:24:35;;;;;;;7.07;1.92;;;;;;;24.07;35.46;101778.16;5040259;28;20360;-66
2022/05/13 07:27:00;;;;;;;10.40;1.73;;;;;;;24.13;34.88;101788.38;5040276;28;20371;-66
2022/05/13 07:29:26;;;;;;;7.82;1.60;;;;;;;24.17;35.48;101787.81;5022208;28;20033;-66
2022/05/13 07:31:51;;;;;;;17.25;1.95;;;;;;;24.26;34.58;101797.56;5039743;28;20032;-65
2022/05/13 07:34:17;;;;;;;1.83;1.10;;;;;;;24.44;34.72;101794.38;5039914;28;20030;-65
2022/05/13 07:36:42;;;;;;;10.27;1.98;;;;;;;24.55;34.25;101787.53;5040141;28;20414;-66
2022/05/13 07:41:51;;;;;;;7.47;1.63;;;;;;;24.68;35.06;101785.75;5024714;28;20059;-66
2022/05/13 07:44:17;;;;;;;6.63;2.10;;;;;;;24.74;34.58;101795.06;5039666;28;20463;-66
2022/05/13 07:46:43;;;;;;;7.10;1.67;;;;;;;24.89;34.32;101793.13;5040038;28;20045;-65
2022/05/13 07:49:08;;;;;;;3.55;1.10;;;;;;;25.03;34.55;101794.06;5039450;28;20027;-66
2022/05/13 07:51:34;;;;;;;7.60;3.10;;;;;;;25.20;33.73;101792.72;5039910;28;20029;-66
2022/05/13 07:53:59;;;;;;;8.98;1.80;;;;;;;25.33;34.11;101796.38;5039532;28;20048;-65
2022/05/13 07:56:25;;;;;;;10.07;1.80;;;;;;;25.49;33.94;101795.22;5039608;28;20021;-66
2022/05/13 07:58:50;;;;;;;8.77;2.63;;;;;;;25.67;33.95;101794.69;5039436;28;20079;-66
2022/05/13 08:01:17;;;;;;;10.20;2.45;;;;;;;25.87;33.48;101785.47;5039514;28;20021;-66
2022/05/13 08:03:43;;;;;;;7.63;1.48;;;;;;;26.05;33.22;101793.13;5039688;28;20557;-65
2022/05/13 08:06:09;;;;;;;8.07;1.50;;;;;;;26.31;33.17;101795.13;5039383;28;20071;-65
2022/05/13 08:08:40;;;;;;;4.70;1.30;;;;;;;26.55;33.33;101798.09;5039647;28;20056;-66
2022/05/13 08:11:08;;;;;;;6.25;1.95;;;;;;;26.84;32.82;101788.63;5039436;28;20130;-65
2022/05/13 08:13:34;;;;;;;4.38;1.30;;;;;;;26.97;32.72;101793.25;5039578;28;20099;-66
2022/05/13 08:16:08;;;;;;;4.07;1.40;;;;;;;27.06;31.92;101790.09;5039349;28;20021;-66
2022/05/13 08:18:34;;;;;;;5.43;1.40;;;;;;;27.28;32.49;101792.56;5039512;28;20033;-66
2022/05/13 08:20:59;;;;;;;8.75;1.67;;;;;;;27.54;32.14;101798.03;5039372;28;20109;-65
2022/05/13 08:23:25;;;;;;;7.97;1.67;;;;;;;27.77;31.78;101803.91;5039621;28;20027;-65
2022/05/13 08:25:51;;;;;;;5.22;1.60;;;;;;;28.00;32.28;101809.69;5021465;28;20018;-66
2022/05/13 08:28:19;;;;;;;5.38;1.35;;;;;;;28.24;32.07;101805.38;5039310;28;20033;-66
2022/05/13 08:30:44;;;;;;;5.25;1.95;;;;;;;28.42;31.59;101810.16;5039372;28;20074;-66
2022/05/13 08:33:11;;;;;;;9.63;1.88;;;;;;;28.57;31.31;101806.00;5038910;28;20430;-66
2022/05/13 08:35:47;;;;;;;5.55;2.28;;;;;;;28.79;30.77;101799.06;5036480;28;20032;-65
2022/05/13 08:38:14;;;;;;;10.48;1.95;;;;;;;29.06;30.12;101805.19;5036053;28;20025;-66
2022/05/13 08:40:59;;;;;;;3.05;1.48;;;;;;;29.32;30.29;101807.69;5036509;28;20091;-65
2022/05/13 08:43:34;;;;;;;4.50;1.23;;;;;;;29.45;30.57;101807.53;5018369;28;20057;-66
2022/05/13 08:46:07;;;;;;;5.30;1.00;;;;;;;29.58;29.88;101814.00;5036089;28;20028;-66
2022/05/13 08:48:53;;;;;;;4.95;1.40;;;;;;;29.39;30.59;101811.25;5018208;28;20026;-65
2022/05/13 08:51:29;;;;;;;4.65;0.93;;;;;;;29.74;30.10;101811.44;5035911;28;20071;-66
2022/05/13 08:54:09;;;;;;;6.40;1.30;;;;;;;30.04;29.77;101814.28;5035710;28;20108;-66
2022/05/13 08:56:35;;;;;;;5.00;1.13;;;;;;;30.26;28.78;101812.72;5017979;28;20053;-65
2022/05/13 08:59:07;;;;;;;4.93;1.08;;;;;;;30.51;29.14;101807.84;5035489;28;20050;-66
2022/05/13 09:01:38;;;;;;;3.88;1.10;;;;;;;30.75;28.49;101822.59;5018203;28;20101;-65
2022/05/13 09:04:07;;;;;;;7.25;0.82;;;;;;;30.93;28.63;101811.44;5017758;28;20025;-66
2022/05/13 09:06:48;;;;;;;4.72;1.02;;;;;;;31.13;28.26;101819.41;5017710;28;20022;-67
2022/05/13 09:09:13;;;;;;;7.10;1.10;;;;;;;31.27;27.96;101809.75;5035398;28;20109;-65
2022/05/13 09:11:58;;;;;;;5.65;2.05;;;;;;;31.36;28.21;101819.41;5017614;28;20112;-65
2022/05/13 09:14:40;;;;;;;6.32;1.13;;;;;;;31.50;27.37;101809.78;5035263;28;20068;-66
2022/05/13 09:17:09;;;;;;;;;;;;;;;31.70;27.85;101810.22;5017979;28;20037;-66
2022/05/13 09:19:41;;;;;;;5.53;0.90;;;;;;;31.86;27.69;101816.91;5017758;28;19963;-66
2022/05/13 09:22:07;;;;;;;3.05;0.82;;;;;;;32.02;27.70;101812.56;5035171;28;20112;-66
2022/05/13 09:24:33;;;;;;;8.95;1.02;;;;;;;31.93;26.85;101819.56;5017435;28;20025;-66
2022/05/13 09:26:58;;;;;;;9.00;1.30;;;;;;;32.08;26.80;101808.78;5035460;28;20107;-66
2022/05/13 09:29:23;;;;;;;4.30;0.82;;;;;;;32.24;26.82;101816.31;5035091;28;20026;-66
2022/05/13 09:31:55;;;;;;;9.02;1.35;;;;;;;32.17;26.83;101807.31;5034939;28;20426;-66
2022/05/13 09:34:26;;;;;;;2.33;0.82;;;;;;;32.07;26.88;101812.66;5034858;28;20024;-66
2022/05/13 09:36:52;;;;;;;2.55;1.20;;;;;;;32.35;26.44;101812.66;5034942;28;20474;-67
2022/05/13 09:39:24;;;;;;;6.88;0.80;;;;;;;32.31;26.17;101811.47;5034859;28;20106;-67
2022/05/13 09:41:53;;;;;;;3.90;0.88;;;;;;;32.37;26.53;101804.91;5035101;28;20475;-65
2022/05/13 09:44:22;;;;;;;3.00;0.70;;;;;;;32.39;26.20;101811.03;5034646;28;20022;-66
2022/05/13 09:47:14;;;;;;;5.13;0.85;;;;;;;32.05;26.17;101806.53;5034081;28;20040;-65
2022/05/13 09:49:42;;;;;;;3.50;0.40;;;;;;;31.55;25.91;101801.56;5034647;28;20426;-66
2022/05/13 09:52:10;;;;;;;3.08;0.63;;;;;;;31.44;26.29;101810.72;5034533;28;20029;-66
2022/05/13 09:54:37;;;;;;;2.35;0.50;;;;;;;31.42;25.99;101818.44;5017229;28;20025;-66
2022/05/13 09:57:07;;;;;;;3.78;1.60;;;;;;;31.99;25.69;101819.41;5034352;28;20049;-66
2022/05/13 09:59:39;;;;;;;3.00;0.85;;;;;;;32.09;25.51;101816.03;5034466;28;20033;-67
2022/05/13 10:02:20;;;;;;;4.05;1.20;;;;;;;32.28;24.96;101806.41;5034420;28;20025;-67
2022/05/13 10:05:11;;;;;;;4.40;0.60;;;;;;;33.38;23.47;101801.06;5034366;28;20021;-66
2022/05/13 10:07:42;;;;;;;0.77;0.65;;;;;;;33.38;24.02;101796.34;5034297;28;20021;-66
2022/05/13 10:15:41;;;;;;;2.38;0.70;;;;;;;32.67;23.83;101807.41;5019245;28;20411;-65
2022/05/13 10:18:27;;;;;;;3.75;0.75;;;;;;;32.78;24.81;101800.94;5016566;28;20026;-66
2022/05/13 10:21:16;;;;;;;1.08;0.40;;;;;;;33.20;24.05;101795.78;5034149;28;20474;-66
2022/05/13 10:23:50;;;;;;;3.65;1.00;;;;;;;33.58;23.03;101804.16;5016439;28;20507;-66
2022/05/13 10:26:18;;;;;;;0.50;0.50;;;;;;;33.77;23.95;101790.75;5034166;28;20490;-66
2022/05/13 10:29:07;;;;;;;2.60;0.55;;;;;;;33.98;23.99;101787.97;5034179;28;20053;-66
2022/05/13 10:31:37;;;;;;;2.88;0.68;;;;;;;33.94;23.29;101791.53;5033882;28;20031;-67
2022/05/13 10:34:07;;;;;;;2.58;1.02;;;;;;;33.76;23.06;101802.97;5016473;28;20026;-66
2022/05/13 10:36:39;;;;;;;3.85;0.80;;;;;;;33.94;22.78;101811.00;5033791;28;20034;-66
2022/05/13 10:39:36;;;;;;;3.75;0.52;;;;;;;33.89;24.00;101808.97;5033832;28;20037;-66
2022/05/13 10:42:06;;;;;;;2.75;0.68;;;;;;;33.35;23.18;101801.56;5000448;28;20045;-67
2022/05/13 10:44:41;;;;;;;4.50;0.77;;;;;;;33.83;23.66;101801.69;5016248;28;20439;-66
2022/05/13 10:47:14;;;;;;;2.30;0.80;;;;;;;34.30;23.59;101803.91;5016116;28;20551;-67
2022/05/13 10:49:42;;;;;;;4.82;0.68;;;;;;;34.73;22.52;101808.53;5016112;28;20509;-66
2022/05/13 10:52:20;;;;;;;2.08;0.68;;;;;;;34.59;22.41;101808.13;5016029;28;20390;-67
2022/05/13 10:55:03;;;;;;;6.53;0.82;;;;;;;34.02;22.60;101815.25;5015942;28;20083;-65
2022/05/13 10:57:43;;;;;;;3.05;0.98;;;;;;;33.39;23.37;101819.44;5032575;28;20507;-66
2022/05/13 11:00:18;;;;;;;3.10;0.40;;;;;;;32.97;23.81;101805.13;5033363;28;20494;-66
2022/05/13 11:02:57;;;;;;;4.13;0.50;;;;;;;32.98;23.06;101817.06;5015782;28;20027;-65
2022/05/13 11:05:41;;;;;;;1.70;0.85;;;;;;;32.63;23.73;101815.41;5033383;28;20387;-66
2022/05/13 11:08:12;;;;;;;2.97;0.47;;;;;;;32.57;23.92;101815.56;5033369;28;20072;-66
2022/05/13 11:10:44;;;;;;;6.75;2.08;;;;;;;32.69;24.02;101819.94;5016072;28;20475;-66
2022/05/13 11:13:33;;;;;;;2.35;0.75;;;;;;;33.29;22.82;101825.66;5015765;28;20032;-66
2022/05/13 11:16:12;;;;;;;2.53;0.98;;;;;;;33.69;22.68;101814.31;5033176;28;20367;-66
2022/05/13 11:18:46;;;;;;;3.65;0.65;;;;;;;34.03;22.22;101806.66;5033140;28;20115;-66
2022/05/13 11:21:45;;;;;;;0.60;0.40;;;;;;;34.50;23.03;101804.97;5015858;28;20553;-66
2022/05/13 11:27:22;;;;;;;3.35;0.70;;;;;;;34.88;22.36;101795.56;5033599;28;20041;-65
2022/05/13 11:29:50;;;;;;;3.58;0.63;;;;;;;35.12;21.57;101795.19;5033337;28;20059;-67
2022/05/13 11:32:46;;;;;;;2.25;0.80;;;;;;;35.40;22.19;101794.81;5015424;28;20025;-66
2022/05/13 11:35:39;;;;;;;3.90;0.82;;;;;;;35.60;21.90;101797.72;5033380;28;20018;-67
2022/05/13 11:38:10;;;;;;;;;;;;;;;35.74;21.65;101798.88;5033616;28;20368;-66
2022/05/13 11:40:56;;;;;;;3.65;0.45;;;;;;;35.88;21.53;101796.41;5015531;28;19909;-66
2022/05/13 11:43:59;;;;;;;2.83;0.43;;;;;;;35.46;21.65;101791.75;5015381;28;20026;-66
2022/05/13 11:46:34;;;;;;;4.32;0.52;;;;;;;35.03;21.86;101798.47;5033108;28;20061;-66
2022/05/13 11:49:15;;;;;;;1.80;0.43;;;;;;;34.42;21.85;101796.25;5033063;28;20109;-65
2022/05/13 11:51:40;;;;;;;1.80;0.52;;;;;;;34.68;21.95;101797.31;5032895;28;20384;-65
2022/05/13 11:54:20;;;;;;;1.63;0.63;;;;;;;34.64;21.07;101797.03;5033118;28;20032;-65
2022/05/13 11:56:46;;;;;;;1.85;0.65;;;;;;;34.96;21.16;101800.63;5032844;28;20029;-66
2022/05/13 11:59:38;;;;;;;2.50;0.70;;;;;;;35.24;21.20;101793.03;5032566;28;20037;-67
2022/05/13 12:02:09;;;;;;;1.67;0.65;;;;;;;35.55;21.52;101803.28;4995707;28;20046;-65
2022/05/13 12:04:37;;;;;;;4.78;0.80;;;;;;;35.80;21.36;101792.22;5032707;28;20025;-66
2022/05/13 12:07:21;;;;;;;1.00;0.68;;;;;;;36.00;20.83;101792.28;5015191;28;20053;-65